Wright-Patterson Air Force Base (FFO)

 

Airport Diagram
Current Weather/Forecast (MVFR Conditions)
METAR KFFO 071256Z 31010KT 10SM BKN011 07/04 A3003 RMK AO2A BKN V SCT SLP175 T00700038
TAF TAF AMD KFFO 071248Z 0712/0817 33012KT 9999 SCT010 QNH3001INS BECMG 0712/0713 32012KT 9999 BKN010 QNH3002INS BECMG 0714/0715 32012G18KT 9999 FEW025 QNH2994INS BECMG 0717/0718 28015G20KT 9000 -SHRA SCT025 BKN040 OVC060 610508 510103 QNH2990INS TEMPO 0720/0724 29020G30KT 4800 -TSRA BKN025CB BECMG 0801/0802 31009KT 9999 NSW SCT060 QNH2992INS BECMG 0814/0815 33012KT 9999 SCT060 QNH2995INS TX16/0720Z TN04/0810Z

Airport Information

All Charts
General
Chart Name View
AIRPORT DIAGRAM
TAKEOFF MINIMUMS

Arrivals
Chart Name Download
DANEI THREE
KEKEE FOUR

Approaches
Chart Name Download
ILS OR LOC RWY 05L
ILS OR LOC RWY 23R
RNAV (GPS) RWY 05L
RNAV (GPS) RWY 05R
RNAV (GPS) RWY 23L
RNAV (GPS) RWY 23R
TACAN RWY 05L
TACAN RWY 05R
TACAN RWY 23L
TACAN RWY 23R


Airport Statistics
Departures Arrivals Local
All Collected Stats since June 2016: 69 60 4
2021 Stats: 8 7 0
May Stats: 0 1 0

Inbound Traffic (Arrivals) - 0

No inbound traffic.


Outbound Traffic (Departures) - 0

No outbound traffic.


Local Traffic (Pattern) - 0

No local traffic.